Time;durP1;ratioP1;P1;durP2;ratioP2;P2;SDS_P1;SDS_P2;PMS_P1;PMS_P2;Temp;Humidity;BMP_temperature;BMP_pressure;BME280_temperature;BME280_humidity;BME280_pressure;Samples;Min_cycle;Max_cycle;Signal;HPM_P1;HPM_P2
2024/02/27 00:02:00;;;;;;;23.63;15.55;;;;;;;7.10;77.85;99691.31;4839651;29;20062;-75
2024/02/27 00:04:27;;;;;;;23.25;15.73;;;;;;;7.07;77.70;99689.66;4839429;29;20064;-77
2024/02/27 00:06:55;;;;;;;23.10;15.93;;;;;;;7.06;77.72;99685.31;4839708;29;20053;-77
2024/02/27 00:09:22;;;;;;;25.10;16.00;;;;;;;7.04;77.40;99689.78;4839560;29;20142;-77
2024/02/27 00:11:49;;;;;;;28.02;16.27;;;;;;;7.03;77.61;99695.94;4839494;29;20057;-77
2024/02/27 00:14:16;;;;;;;24.58;15.75;;;;;;;7.01;77.71;99696.00;4839540;29;20464;-77
2024/02/27 00:16:42;;;;;;;23.00;15.68;;;;;;;7.00;77.54;99696.06;4839324;29;20093;-78
2024/02/27 00:19:09;;;;;;;25.45;15.63;;;;;;;6.98;77.78;99700.50;4839295;29;20100;-77
2024/02/27 00:21:36;;;;;;;24.48;14.85;;;;;;;6.98;77.70;99701.38;4823378;29;20130;-77
2024/02/27 00:24:03;;;;;;;24.42;15.95;;;;;;;6.97;77.58;99706.66;4839600;29;20076;-76
2024/02/27 00:26:30;;;;;;;20.75;15.00;;;;;;;6.95;77.65;99700.66;4839421;29;20114;-77
2024/02/27 00:28:56;;;;;;;22.85;14.77;;;;;;;6.94;77.52;99704.16;4839289;29;20053;-78
2024/02/27 00:31:23;;;;;;;25.38;14.68;;;;;;;6.92;77.44;99709.50;4839479;29;20081;-77
2024/02/27 00:33:50;;;;;;;23.55;15.10;;;;;;;6.89;77.12;99718.31;4839530;29;20144;-76
2024/02/27 00:36:17;;;;;;;22.13;14.60;;;;;;;6.87;77.10;99716.66;4839601;29;20058;-77
2024/02/27 00:38:44;;;;;;;22.90;14.85;;;;;;;6.85;77.44;99718.50;4839683;29;20066;-77
2024/02/27 00:41:10;;;;;;;25.52;15.13;;;;;;;6.82;77.41;99713.41;4839789;29;20480;-75
2024/02/27 00:43:37;;;;;;;24.33;15.18;;;;;;;6.80;77.14;99720.47;4839354;29;20145;-76
2024/02/27 00:46:03;;;;;;;22.05;14.85;;;;;;;6.76;77.45;99714.50;4839249;29;20056;-76
2024/02/27 00:48:30;;;;;;;22.85;14.32;;;;;;;6.74;77.20;99711.13;4839483;29;20058;-76
2024/02/27 00:50:57;;;;;;;22.33;14.82;;;;;;;6.71;77.06;99712.09;4839466;29;20060;-76
2024/02/27 00:53:23;;;;;;;21.42;13.63;;;;;;;6.69;77.29;99716.53;4839236;29;20054;-76
2024/02/27 00:55:50;;;;;;;21.88;14.13;;;;;;;6.68;77.08;99713.97;4839204;29;20101;-77
2024/02/27 00:58:16;;;;;;;23.02;14.48;;;;;;;6.65;77.41;99715.81;4839147;29;20080;-77
2024/02/27 01:00:43;;;;;;;23.20;16.02;;;;;;;6.64;77.34;99708.03;4839620;29;20054;-77
2024/02/27 01:03:09;;;;;;;21.98;14.27;;;;;;;6.62;77.12;99710.69;4839362;29;20061;-75
2024/02/27 01:05:36;;;;;;;22.58;13.93;;;;;;;6.60;77.40;99712.53;4839141;29;20068;-75
2024/02/27 01:08:03;;;;;;;20.40;13.63;;;;;;;6.59;77.30;99716.09;4842311;29;20054;-75
2024/02/27 01:10:29;;;;;;;23.48;14.25;;;;;;;6.57;77.25;99706.56;4843144;29;20058;-77
2024/02/27 01:12:56;;;;;;;23.08;14.45;;;;;;;6.56;77.29;99720.56;4842755;29;20062;-77
2024/02/27 01:15:23;;;;;;;21.05;14.75;;;;;;;6.55;77.42;99718.88;4842360;29;20057;-77
2024/02/27 01:17:50;;;;;;;23.10;14.35;;;;;;;6.55;77.62;99726.72;4842527;29;20500;-77
2024/02/27 01:20:16;;;;;;;24.13;15.25;;;;;;;6.54;77.64;99722.41;4842567;29;20078;-77
2024/02/27 01:22:44;;;;;;;24.35;15.77;;;;;;;6.53;77.70;99725.94;4842436;29;20492;-78
2024/02/27 01:25:12;;;;;;;22.50;14.73;;;;;;;6.53;77.76;99729.38;4842930;29;20141;-74
2024/02/27 01:27:39;;;;;;;25.00;15.32;;;;;;;6.53;77.73;99720.72;4826074;29;20103;-77
2024/02/27 01:30:06;;;;;;;22.83;14.63;;;;;;;6.53;77.66;99728.56;4842115;29;20057;-80
2024/02/27 01:32:32;;;;;;;21.55;14.52;;;;;;;6.53;77.68;99726.78;4826115;29;20085;-77
2024/02/27 01:34:59;;;;;;;24.65;15.27;;;;;;;6.54;77.77;99732.88;4842369;29;20054;-77
2024/02/27 01:37:26;;;;;;;23.20;14.45;;;;;;;6.54;77.87;99738.09;4842212;29;20144;-78
2024/02/27 01:39:53;;;;;;;24.02;15.68;;;;;;;6.53;77.70;99731.16;4841991;29;20089;-77
2024/02/27 01:42:19;;;;;;;25.38;15.30;;;;;;;6.52;77.52;99735.53;4825522;29;20081;-78
2024/02/27 01:44:51;;;;;;;24.50;15.60;;;;;;;6.51;76.80;99736.47;4842225;29;20076;-74
2024/02/27 01:47:19;;;;;;;25.60;15.82;;;;;;;6.51;76.99;99736.47;4842138;29;20060;-77
2024/02/27 01:49:48;;;;;;;25.30;15.80;;;;;;;6.50;77.19;99734.72;4842345;29;20156;-76
2024/02/27 01:52:15;;;;;;;26.27;16.13;;;;;;;6.48;77.70;99732.22;4842046;29;20107;-84
2024/02/27 01:54:45;;;;;;;29.02;16.08;;;;;;;6.46;77.44;99734.00;4841761;29;20492;-77
2024/02/27 01:57:13;;;;;;;27.15;16.50;;;;;;;6.46;77.53;99730.53;4842042;29;20064;-77
2024/02/27 01:59:43;;;;;;;23.85;15.65;;;;;;;6.45;77.76;99734.94;4841905;29;20140;-77
2024/02/27 02:02:11;;;;;;;28.00;16.55;;;;;;;6.46;77.60;99733.16;4841692;29;20050;-77
2024/02/27 02:04:38;;;;;;;24.98;15.25;;;;;;;6.44;77.60;99740.22;4841799;29;20469;-78
2024/02/27 02:07:05;;;;;;;26.90;16.48;;;;;;;6.42;77.21;99736.84;4841659;29;20061;-82
2024/02/27 02:09:32;;;;;;;24.23;16.13;;;;;;;6.39;77.23;99741.25;4841289;29;20072;-76
2024/02/27 02:11:59;;;;;;;26.50;16.45;;;;;;;6.38;77.21;99744.78;4841711;29;20118;-77
2024/02/27 02:14:25;;;;;;;26.88;16.17;;;;;;;6.35;77.28;99744.03;4841565;29;20423;-82
2024/02/27 02:16:52;;;;;;;27.58;16.70;;;;;;;6.33;77.23;99749.34;4841049;29;20054;-75
2024/02/27 02:19:19;;;;;;;28.00;16.50;;;;;;;6.33;77.67;99754.59;4841352;29;20062;-77
2024/02/27 02:21:52;;;;;;;29.58;16.05;;;;;;;6.31;77.50;99758.19;4841417;29;20397;-77
2024/02/27 02:24:21;;;;;;;24.10;15.73;;;;;;;6.31;77.72;99766.03;4825265;29;20057;-76
2024/02/27 02:26:47;;;;;;;25.10;15.50;;;;;;;6.29;77.40;99766.06;4841513;29;20148;-77
2024/02/27 02:29:14;;;;;;;24.63;16.05;;;;;;;6.29;77.67;99778.28;4824799;29;20068;-77
2024/02/27 02:31:41;;;;;;;24.67;15.93;;;;;;;6.28;77.58;99784.44;4841189;29;20077;-77
2024/02/27 02:34:07;;;;;;;24.67;15.50;;;;;;;6.27;77.83;99787.97;4841140;29;20112;-77
2024/02/27 02:36:34;;;;;;;25.33;16.52;;;;;;;6.25;77.60;99791.47;4841018;29;20111;-77
2024/02/27 02:39:01;;;;;;;29.23;17.38;;;;;;;6.25;77.71;99791.47;4841029;29;20061;-77
2024/02/27 02:41:27;;;;;;;24.45;15.63;;;;;;;6.24;77.59;99792.38;4841360;29;20050;-77
2024/02/27 02:43:54;;;;;;;27.67;16.38;;;;;;;6.23;77.48;99785.47;4841129;29;20174;-77
2024/02/27 02:46:20;;;;;;;27.33;16.58;;;;;;;6.22;77.83;99786.38;4841165;29;20145;-77
2024/02/27 02:48:47;;;;;;;26.27;16.77;;;;;;;6.21;77.61;99791.66;4840900;29;20057;-76
2024/02/27 02:51:14;;;;;;;24.92;15.57;;;;;;;6.19;77.60;99796.06;4841121;29;20511;-79
2024/02/27 02:53:41;;;;;;;25.67;16.17;;;;;;;6.20;77.46;99797.81;4840924;29;20058;-82
2024/02/27 02:56:08;;;;;;;27.48;16.10;;;;;;;6.19;77.27;99796.06;4840895;29;20057;-77
2024/02/27 02:58:35;;;;;;;26.65;17.58;;;;;;;6.16;77.18;99798.81;4840856;29;20062;-77
2024/02/27 03:01:02;;;;;;;28.98;17.27;;;;;;;6.12;76.88;99796.31;4841105;29;20348;-79
2024/02/27 03:03:29;;;;;;;25.95;17.17;;;;;;;6.10;77.26;99800.75;4840632;29;20050;-77
2024/02/27 03:05:55;;;;;;;27.88;17.00;;;;;;;6.06;77.06;99793.91;4840913;29;20062;-78
2024/02/27 03:08:24;;;;;;;28.80;16.90;;;;;;;6.05;77.61;99804.47;4840665;29;20073;-77
2024/02/27 03:10:51;;;;;;;28.48;18.13;;;;;;;6.03;77.21;99796.69;4840844;29;20503;-74
2024/02/27 03:13:18;;;;;;;29.88;18.80;;;;;;;6.02;77.65;99800.13;4833156;29;20057;-77
2024/02/27 03:15:44;;;;;;;30.70;19.05;;;;;;;6.00;77.59;99810.69;4840474;29;20049;-77
2024/02/27 03:18:11;;;;;;;27.63;17.45;;;;;;;6.00;77.67;99808.06;4840231;29;20066;-74
2024/02/27 03:20:38;;;;;;;29.67;17.63;;;;;;;5.99;77.72;99810.72;4840508;29;20156;-77
2024/02/27 03:23:04;;;;;;;29.00;18.50;;;;;;;5.98;78.14;99809.03;4840488;29;20072;-77
2024/02/27 03:25:31;;;;;;;31.67;18.27;;;;;;;5.98;78.17;99814.25;4840400;29;20465;-77
2024/02/27 03:27:58;;;;;;;31.63;18.50;;;;;;;5.97;77.89;99813.41;4840963;29;20065;-80
2024/02/27 03:30:25;;;;;;;34.50;20.23;;;;;;;5.98;78.31;99809.88;4839534;29;20153;-77
2024/02/27 03:32:52;;;;;;;31.85;20.05;;;;;;;5.98;77.98;99806.41;4840348;29;20125;-74
2024/02/27 03:35:19;;;;;;;27.88;18.63;;;;;;;5.98;77.88;99812.47;4840197;29;20556;-75
2024/02/27 03:37:46;;;;;;;29.83;18.80;;;;;;;5.98;77.86;99820.31;4840311;29;20148;-77
2024/02/27 03:40:12;;;;;;;34.55;20.23;;;;;;;5.97;77.92;99810.78;4840038;29;20153;-76
2024/02/27 03:42:39;;;;;;;30.55;19.58;;;;;;;5.98;77.91;99811.66;4840755;29;20350;-77
2024/02/27 03:45:08;;;;;;;34.13;20.83;;;;;;;5.96;77.80;99819.53;4840112;29;20530;-77
2024/02/27 03:47:35;;;;;;;32.78;20.88;;;;;;;5.97;78.11;99816.00;4839972;29;20148;-77
2024/02/27 03:50:02;;;;;;;35.53;21.25;;;;;;;5.97;78.12;99816.00;4839911;29;20054;-77
2024/02/27 03:52:30;;;;;;;39.60;23.20;;;;;;;5.97;77.91;99823.84;4840048;29;20053;-76
2024/02/27 03:54:57;;;;;;;39.33;22.88;;;;;;;5.97;78.43;99817.75;4840121;29;20145;-78
2024/02/27 03:57:23;;;;;;;39.15;23.00;;;;;;;5.97;78.20;99820.38;4840301;29;20153;-78
2024/02/27 03:59:50;;;;;;;43.65;24.25;;;;;;;5.96;78.46;99816.94;4839499;29;20114;-78
2024/02/27 04:02:17;;;;;;;48.75;26.73;;;;;;;5.97;78.20;99826.47;4839863;29;20145;-79
2024/02/27 04:04:43;;;;;;;43.10;24.92;;;;;;;5.98;77.85;99819.50;4839892;29;20061;-78
2024/02/27 04:07:10;;;;;;;46.22;26.55;;;;;;;5.97;77.96;99822.97;4823826;29;20180;-83
2024/02/27 04:09:36;;;;;;;48.15;27.02;;;;;;;5.97;78.11;99820.38;4839864;29;20404;-78
2024/02/27 04:12:03;;;;;;;48.97;28.42;;;;;;;5.96;78.17;99818.66;4839810;29;20111;-79
2024/02/27 04:14:30;;;;;;;56.47;30.95;;;;;;;5.95;77.80;99817.81;4839545;29;20081;-75
2024/02/27 04:16:57;;;;;;;54.75;29.02;;;;;;;5.94;78.28;99817.91;4839695;29;20062;-75
2024/02/27 04:19:23;;;;;;;52.75;28.85;;;;;;;5.94;78.09;99817.91;4839363;29;20060;-76
2024/02/27 04:21:50;;;;;;;48.05;26.40;;;;;;;5.93;78.18;99822.25;4839530;29;20496;-75
2024/02/27 04:24:17;;;;;;;55.35;28.45;;;;;;;5.93;78.24;99826.63;4839687;29;20070;-75
2024/02/27 04:26:44;;;;;;;56.92;29.38;;;;;;;5.92;78.27;99817.94;4839630;29;20064;-75
2024/02/27 04:29:11;;;;;;;50.70;28.55;;;;;;;5.92;77.96;99828.41;4839809;29;20407;-76
2024/02/27 04:31:37;;;;;;;49.60;27.60;;;;;;;5.92;78.04;99838.84;4839636;29;20092;-75
2024/02/27 04:34:04;;;;;;;50.85;28.60;;;;;;;5.92;77.99;99835.38;4839438;29;20057;-76
2024/02/27 04:36:31;;;;;;;53.13;28.15;;;;;;;5.90;78.09;99845.88;4839264;29;20507;-73
2024/02/27 04:38:57;;;;;;;52.97;28.92;;;;;;;5.91;77.95;99847.56;4839425;29;20072;-74
2024/02/27 04:41:24;;;;;;;48.22;26.27;;;;;;;5.89;77.98;99845.91;4841959;29;20141;-76
2024/02/27 04:43:51;;;;;;;52.80;28.92;;;;;;;5.89;78.03;99843.31;4827119;29;20137;-78
2024/02/27 04:46:17;;;;;;;56.35;27.90;;;;;;;5.87;78.26;99841.63;4843458;29;20152;-76
2024/02/27 04:48:44;;;;;;;48.10;27.38;;;;;;;5.86;78.09;99847.75;4843046;29;20141;-75
2024/02/27 04:51:11;;;;;;;49.45;25.98;;;;;;;5.85;77.96;99845.19;4843166;29;20105;-75
2024/02/27 04:53:38;;;;;;;54.20;25.77;;;;;;;5.83;77.92;99857.47;4843020;29;20058;-76
2024/02/27 04:56:05;;;;;;;41.75;24.10;;;;;;;5.80;77.54;99852.34;4843027;29;20062;-75
2024/02/27 04:58:31;;;;;;;52.17;25.10;;;;;;;5.77;77.78;99852.44;4843146;29;20058;-75
2024/02/27 05:00:58;;;;;;;71.90;27.92;;;;;;;5.74;77.87;99853.41;4843047;29;20471;-78
2024/02/27 05:03:25;;;;;;;42.33;24.05;;;;;;;5.70;78.03;99854.44;4843058;29;20061;-78
2024/02/27 05:05:51;;;;;;;58.25;25.23;;;;;;;5.68;78.19;99851.03;4842545;29;20141;-78
2024/02/27 05:08:18;;;;;;;77.35;23.98;;;;;;;5.67;78.17;99858.00;4826340;29;20054;-77
2024/02/27 05:10:45;;;;;;;54.45;22.08;;;;;;;5.65;78.02;99853.75;4842941;29;20057;-75
2024/02/27 05:13:11;;;;;;;68.10;22.98;;;;;;;5.62;78.03;99859.91;4842945;29;20114;-78
2024/02/27 05:15:39;;;;;;;41.80;21.67;;;;;;;5.60;77.74;99856.50;4842691;29;20507;-82
2024/02/27 05:18:06;;;;;;;107.18;24.73;;;;;;;5.58;77.96;99861.78;4842604;29;20054;-76
2024/02/27 05:20:33;;;;;;;91.90;23.13;;;;;;;5.56;78.20;99862.72;4842720;29;20058;-79
2024/02/27 05:23:00;;;;;;;46.65;21.75;;;;;;;5.55;78.21;99853.19;4842576;29;20062;-75
2024/02/27 05:25:27;;;;;;;64.47;23.27;;;;;;;5.53;78.32;99858.47;4842777;29;20772;-74
2024/02/27 05:27:54;;;;;;;92.53;23.92;;;;;;;5.51;78.33;99873.34;4842687;29;20147;-76
2024/02/27 05:33:03;;;;;;;75.22;21.58;;;;;;;5.49;77.85;99877.75;4841050;29;20046;-76
2024/02/27 05:35:30;;;;;;;60.15;23.48;;;;;;;5.47;77.94;99882.19;4842968;29;20064;-78
2024/02/27 05:37:57;;;;;;;43.45;22.00;;;;;;;5.44;78.50;99890.97;4826104;29;20057;-77
2024/02/27 05:40:23;;;;;;;56.58;22.30;;;;;;;5.44;78.37;99897.94;4826075;29;20089;-75
2024/02/27 05:42:50;;;;;;;44.60;21.58;;;;;;;5.42;78.63;99898.00;4842797;29;20061;-78
2024/02/27 05:45:16;;;;;;;58.17;24.05;;;;;;;5.41;78.51;99904.13;4842731;29;20107;-81
2024/02/27 05:47:43;;;;;;;52.30;23.08;;;;;;;5.41;78.47;99905.88;4842749;29;20053;-75
2024/02/27 05:50:10;;;;;;;98.75;21.48;;;;;;;5.41;78.79;99908.47;4826045;29;20058;-75
2024/02/27 05:52:37;;;;;;;55.33;22.08;;;;;;;5.40;78.26;99925.06;4841826;29;20499;-81
2024/02/27 05:55:04;;;;;;;40.20;19.70;;;;;;;5.39;78.05;99924.22;4842560;29;20098;-77
2024/02/27 05:57:31;;;;;;;50.35;20.95;;;;;;;5.38;78.32;99930.31;4826131;29;20054;-76
2024/02/27 05:59:58;;;;;;;62.05;20.98;;;;;;;5.37;78.43;99923.41;4842060;29;20049;-78
2024/02/27 06:02:24;;;;;;;50.75;19.20;;;;;;;5.38;78.43;99929.50;4842107;29;20058;-77
2024/02/27 06:04:51;;;;;;;43.22;19.10;;;;;;;5.37;78.64;99928.63;4825387;29;20541;-77
2024/02/27 06:07:18;;;;;;;36.38;18.75;;;;;;;5.37;78.53;99930.38;4842047;29;20057;-82
2024/02/27 06:09:44;;;;;;;37.45;19.60;;;;;;;5.35;78.46;99931.28;4842011;29;20054;-77
2024/02/27 06:12:11;;;;;;;45.75;20.25;;;;;;;5.37;78.62;99938.19;4842379;29;20144;-76
2024/02/27 06:14:39;;;;;;;38.90;17.33;;;;;;;5.35;78.41;99940.91;4842264;29;20056;-77
2024/02/27 06:17:05;;;;;;;63.97;18.48;;;;;;;5.35;78.20;99940.91;4842016;29;20053;-76
2024/02/27 06:19:32;;;;;;;47.17;18.77;;;;;;;5.33;78.40;99953.13;4841702;29;20144;-77
2024/02/27 06:22:10;;;;;;;38.90;19.52;;;;;;;5.32;78.66;99962.72;4841900;29;20050;-78
2024/02/27 06:24:38;;;;;;;58.35;19.55;;;;;;;5.32;78.47;99964.47;4842006;29;20151;-77
2024/02/27 06:27:07;;;;;;;49.55;18.98;;;;;;;5.31;78.27;99955.78;4841787;29;20136;-79
2024/02/27 06:29:33;;;;;;;41.72;19.77;;;;;;;5.30;78.72;99959.28;4841108;29;20046;-78
2024/02/27 06:32:01;;;;;;;74.13;20.13;;;;;;;5.30;78.74;99953.22;4841365;29;20102;-78
2024/02/27 06:34:29;;;;;;;60.20;20.52;;;;;;;5.30;78.77;99963.66;4841040;29;20064;-78
2024/02/27 06:36:57;;;;;;;40.78;19.42;;;;;;;5.29;78.94;99967.16;4840117;29;20050;-76
2024/02/27 06:39:23;;;;;;;45.15;20.73;;;;;;;5.29;78.79;99965.44;4840087;29;20133;-78
2024/02/27 06:41:50;;;;;;;46.08;20.65;;;;;;;5.30;79.00;99974.09;4841342;29;20114;-82
2024/02/27 06:44:18;;;;;;;98.90;22.02;;;;;;;5.28;78.85;99979.38;4841488;29;20054;-78
2024/02/27 06:46:45;;;;;;;43.95;20.30;;;;;;;5.28;79.03;99984.59;4825168;29;20134;-80
2024/02/27 06:49:11;;;;;;;76.03;20.67;;;;;;;5.30;79.01;99998.44;4840876;29;20132;-76
2024/02/27 06:51:47;;;;;;;36.70;18.33;;;;;;;5.30;78.84;100003.66;4841784;29;20053;-77
2024/02/27 06:54:14;;;;;;;54.95;20.67;;;;;;;5.31;79.05;100001.94;4825272;29;20145;-77
2024/02/27 06:56:41;;;;;;;54.60;21.10;;;;;;;5.31;78.97;99991.47;4841408;29;20090;-78
2024/02/27 06:59:07;;;;;;;53.33;20.08;;;;;;;5.30;79.16;100008.88;4841112;29;20058;-77
2024/02/27 07:01:34;;;;;;;51.58;20.30;;;;;;;5.32;79.24;100008.84;4841554;29;20572;-78
2024/02/27 07:04:01;;;;;;;44.22;19.98;;;;;;;5.32;79.05;100008.84;4841232;29;20102;-78
2024/02/27 07:06:28;;;;;;;33.63;18.98;;;;;;;5.33;79.23;100006.19;4840948;29;20728;-79
2024/02/27 07:08:55;;;;;;;33.13;18.08;;;;;;;5.33;79.18;100008.81;4839985;29;20050;-77
2024/02/27 07:11:22;;;;;;;32.88;17.40;;;;;;;5.34;79.28;100014.84;4840638;29;20095;-77
2024/02/27 07:13:48;;;;;;;38.67;16.67;;;;;;;5.36;79.13;100007.84;4824415;29;20065;-76
2024/02/27 07:16:16;;;;;;;34.08;18.17;;;;;;;5.38;79.19;100015.63;4840882;29;20057;-76
2024/02/27 07:18:42;;;;;;;41.35;16.17;;;;;;;5.39;79.62;100017.34;4840348;29;20053;-79
2024/02/27 07:21:09;;;;;;;39.15;17.13;;;;;;;5.41;79.54;100019.00;4840899;29;20085;-76
2024/02/27 07:23:36;;;;;;;51.78;19.20;;;;;;;5.44;79.21;100023.25;4841020;29;20054;-76
2024/02/27 07:26:02;;;;;;;50.63;17.85;;;;;;;5.46;79.22;100019.69;4840823;29;20046;-79
2024/02/27 07:28:29;;;;;;;52.10;17.13;;;;;;;5.48;79.28;100030.97;4840815;29;20049;-76
2024/02/27 07:30:59;;;;;;;34.25;18.52;;;;;;;5.48;78.96;100017.91;4840952;29;20054;-77
2024/02/27 07:33:26;;;;;;;50.17;17.65;;;;;;;5.49;79.21;100021.34;4841038;29;20114;-76
2024/02/27 07:35:53;;;;;;;40.75;17.40;;;;;;;5.51;79.24;100026.53;4840810;29;20061;-81
2024/02/27 07:38:19;;;;;;;31.40;16.38;;;;;;;5.52;79.34;100025.63;4840563;29;20058;-78
2024/02/27 07:40:46;;;;;;;50.67;18.25;;;;;;;5.53;79.10;100033.41;4840839;29;20153;-76
2024/02/27 07:43:13;;;;;;;62.05;19.15;;;;;;;5.55;79.13;100033.38;4841113;29;20053;-76
2024/02/27 07:45:39;;;;;;;87.18;18.83;;;;;;;5.55;79.39;100030.75;4840886;29;20045;-77
2024/02/27 07:48:06;;;;;;;71.53;19.17;;;;;;;5.57;79.01;100039.41;4824281;29;20081;-76
2024/02/27 07:50:33;;;;;;;40.67;17.70;;;;;;;5.58;79.13;100033.28;4824392;29;20629;-76
2024/02/27 07:53:00;;;;;;;43.13;17.67;;;;;;;5.59;79.21;100041.06;4840537;29;20072;-79
2024/02/27 07:55:27;;;;;;;33.78;17.77;;;;;;;5.60;79.17;100040.16;4840543;29;20046;-76
2024/02/27 07:57:53;;;;;;;37.22;18.20;;;;;;;5.60;79.35;100034.06;4840506;29;20503;-76
2024/02/27 08:00:20;;;;;;;41.97;17.65;;;;;;;5.60;78.91;100041.91;4840298;29;20058;-76
2024/02/27 08:02:47;;;;;;;38.25;17.23;;;;;;;5.60;79.35;100040.16;4840449;29;20102;-78
2024/02/27 08:05:13;;;;;;;31.67;17.83;;;;;;;5.60;79.43;100040.16;4840598;29;20042;-79
2024/02/27 08:07:41;;;;;;;32.60;17.08;;;;;;;5.63;79.55;100040.94;4840223;29;20099;-76
2024/02/27 08:10:08;;;;;;;31.88;17.42;;;;;;;5.65;79.50;100039.16;4840249;29;20068;-77
2024/02/27 08:12:35;;;;;;;33.65;17.42;;;;;;;5.64;79.48;100030.47;4840514;29;20061;-77
2024/02/27 08:15:02;;;;;;;30.60;16.83;;;;;;;5.66;79.58;100028.66;4839934;29;20050;-76
2024/02/27 08:17:28;;;;;;;50.08;17.98;;;;;;;5.67;79.21;100032.13;4840002;29;20476;-76
2024/02/27 08:19:55;;;;;;;94.90;20.17;;;;;;;5.68;79.24;100033.84;4839958;29;20058;-76
2024/02/27 08:22:22;;;;;;;37.97;17.80;;;;;;;5.67;79.08;100034.72;4840058;29;20062;-79
2024/02/27 08:24:48;;;;;;;37.28;18.73;;;;;;;5.67;79.49;100032.13;4840443;29;20141;-77
2024/02/27 08:27:15;;;;;;;38.88;18.70;;;;;;;5.66;79.80;100033.91;4840412;29;20081;-78
2024/02/27 08:29:41;;;;;;;32.55;17.35;;;;;;;5.70;79.68;100032.91;4840217;29;20154;-79
2024/02/27 08:32:08;;;;;;;38.97;17.55;;;;;;;5.72;79.76;100032.84;4839813;29;20558;-79
2024/02/27 08:34:34;;;;;;;43.58;17.60;;;;;;;5.72;79.51;100032.84;4840099;29;20064;-77
2024/02/27 08:37:01;;;;;;;48.63;18.35;;;;;;;5.76;79.54;100031.84;4823878;29;20050;-79
2024/02/27 08:39:28;;;;;;;58.97;16.55;;;;;;;5.77;79.33;100030.06;4840042;29;20124;-77
2024/02/27 08:41:55;;;;;;;74.72;17.58;;;;;;;5.78;79.42;100039.59;4823896;29;20054;-78
2024/02/27 08:44:21;;;;;;;35.97;16.70;;;;;;;5.77;79.60;100046.59;4840086;29;20050;-78
2024/02/27 08:46:50;;;;;;;34.58;17.15;;;;;;;5.77;79.59;100054.44;4823615;29;20068;-77
2024/02/27 08:49:16;;;;;;;44.33;17.27;;;;;;;5.79;79.40;100055.22;4839659;29;20145;-80
2024/02/27 08:51:44;;;;;;;33.78;16.42;;;;;;;5.80;79.41;100050.88;4840126;29;20500;-77
2024/02/27 08:54:11;;;;;;;39.50;17.80;;;;;;;5.81;79.70;100057.81;4840158;29;20064;-76
2024/02/27 08:56:39;;;;;;;45.47;18.02;;;;;;;5.83;80.05;100054.22;4840004;29;20057;-78
2024/02/27 08:59:06;;;;;;;45.45;17.85;;;;;;;5.84;79.77;100058.53;4839691;29;20053;-78
2024/02/27 09:01:33;;;;;;;52.40;19.42;;;;;;;5.87;79.59;100052.41;4839911;29;20089;-78
2024/02/27 09:03:59;;;;;;;40.78;16.65;;;;;;;5.90;79.55;100064.50;4839845;29;20449;-78
2024/02/27 09:06:26;;;;;;;44.58;17.25;;;;;;;5.90;79.64;100062.72;4840113;29;20149;-79
2024/02/27 09:08:53;;;;;;;34.65;16.52;;;;;;;5.90;79.09;100056.66;4839691;29;20116;-78
2024/02/27 09:11:20;;;;;;;53.05;17.58;;;;;;;5.90;79.37;100056.66;4839968;29;20137;-77
2024/02/27 09:13:46;;;;;;;30.42;15.20;;;;;;;5.91;79.18;100055.75;4839861;29;20612;-79
2024/02/27 09:16:13;;;;;;;27.25;14.15;;;;;;;5.87;78.94;100053.22;4823411;29;20551;-78
2024/02/27 09:18:43;;;;;;;32.75;15.68;;;;;;;5.86;79.13;100063.72;4839374;29;20099;-77
2024/02/27 09:21:10;;;;;;;30.15;15.32;;;;;;;5.84;79.47;100066.38;4839856;29;20053;-78
2024/02/27 09:23:37;;;;;;;30.92;15.07;;;;;;;5.83;79.79;100067.28;4839894;29;20092;-77
2024/02/27 09:26:04;;;;;;;30.88;16.10;;;;;;;5.83;79.57;100064.69;4839974;29;20122;-77
2024/02/27 09:28:30;;;;;;;33.22;15.80;;;;;;;5.84;79.82;100074.22;4825498;29;20057;-77
2024/02/27 09:30:59;;;;;;;32.67;15.40;;;;;;;5.84;79.89;100071.59;4843058;29;20053;-77
2024/02/27 09:33:27;;;;;;;32.45;15.38;;;;;;;5.85;79.86;100067.25;4843286;29;20049;-77
2024/02/27 09:35:54;;;;;;;30.55;16.00;;;;;;;5.86;80.26;100075.03;4843121;29;20183;-79
2024/02/27 09:38:20;;;;;;;30.13;15.63;;;;;;;5.90;80.20;100072.34;4842521;29;20475;-78
2024/02/27 09:40:47;;;;;;;30.98;15.63;;;;;;;5.94;80.03;100076.56;4826533;29;20050;-76
2024/02/27 09:43:21;;;;;;;32.65;15.82;;;;;;;5.97;79.92;100076.44;4842868;29;20089;-78
2024/02/27 09:45:48;;;;;;;32.35;16.58;;;;;;;6.04;80.13;100079.72;4842649;29;20057;-76
2024/02/27 09:48:20;;;;;;;32.88;16.00;;;;;;;6.06;79.62;100078.78;4842749;29;20060;-77
2024/02/27 09:50:51;;;;;;;34.70;16.05;;;;;;;6.12;80.05;100081.22;4842908;29;20060;-76
2024/02/27 09:53:19;;;;;;;33.17;16.23;;;;;;;6.16;79.91;100081.94;4842543;29;20491;-75
2024/02/27 09:55:46;;;;;;;34.20;17.58;;;;;;;6.20;79.96;100080.09;4826122;29;20088;-77
2024/02/27 09:58:14;;;;;;;31.08;16.40;;;;;;;6.24;80.05;100082.56;4842147;29;20053;-78
2024/02/27 10:00:40;;;;;;;29.38;15.32;;;;;;;6.26;79.60;100090.34;4843011;29;20454;-76
2024/02/27 10:03:09;;;;;;;28.48;15.40;;;;;;;6.30;79.56;100085.84;4842392;29;20054;-78
2024/02/27 10:05:37;;;;;;;31.70;15.75;;;;;;;6.32;79.48;100086.66;4842421;29;20110;-77
2024/02/27 10:08:11;;;;;;;32.35;15.68;;;;;;;6.34;78.72;100090.94;4842044;29;20061;-76
2024/02/27 10:10:39;;;;;;;32.55;15.10;;;;;;;6.38;79.65;100089.94;4842345;29;20124;-77
2024/02/27 10:13:07;;;;;;;30.30;15.63;;;;;;;6.42;79.39;100089.84;4842257;29;20508;-77
2024/02/27 10:15:33;;;;;;;30.95;15.77;;;;;;;6.43;79.17;100095.00;4842456;29;20100;-77
2024/02/27 10:18:00;;;;;;;32.67;16.20;;;;;;;6.46;79.62;100094.03;4842077;29;20054;-75
2024/02/27 10:20:28;;;;;;;33.50;17.05;;;;;;;6.49;79.32;100092.19;4842151;29;20054;-77
2024/02/27 10:22:57;;;;;;;33.85;16.17;;;;;;;6.51;79.42;100090.34;4842117;29;20054;-77
2024/02/27 10:25:27;;;;;;;32.50;16.08;;;;;;;6.55;79.28;100095.47;4841985;29;20050;-76
2024/02/27 10:27:56;;;;;;;29.52;15.35;;;;;;;6.57;79.53;100083.19;4842050;29;20540;-78
2024/02/27 10:30:25;;;;;;;29.73;15.68;;;;;;;6.61;79.32;100085.66;4841830;29;20159;-80
2024/02/27 10:32:51;;;;;;;29.35;14.98;;;;;;;6.66;79.85;100080.28;4842058;29;20500;-77
2024/02/27 10:35:19;;;;;;;28.48;14.23;;;;;;;6.70;79.40;100086.25;4825619;29;20057;-78
2024/02/27 10:37:46;;;;;;;29.25;15.18;;;;;;;6.73;79.65;100067.81;4841595;29;20122;-76
2024/02/27 10:40:13;;;;;;;29.80;15.88;;;;;;;6.80;79.73;100073.69;4841603;29;20408;-77
2024/02/27 10:42:43;;;;;;;29.77;16.25;;;;;;;6.83;79.74;100079.66;4825471;29;20111;-76
2024/02/27 10:45:11;;;;;;;31.38;16.38;;;;;;;6.88;79.64;100079.50;4841734;29;20688;-77
2024/02/27 10:47:38;;;;;;;31.13;15.13;;;;;;;6.93;79.38;100088.03;4841568;29;20114;-80
2024/02/27 10:50:06;;;;;;;31.17;16.90;;;;;;;6.96;79.23;100089.69;4841508;29;20045;-76
2024/02/27 10:52:37;;;;;;;31.83;16.50;;;;;;;6.99;79.25;100094.81;4841667;29;20089;-77
2024/02/27 10:55:05;;;;;;;27.60;15.27;;;;;;;7.04;79.81;100090.25;4841834;29;20058;-77
2024/02/27 10:57:32;;;;;;;28.10;15.95;;;;;;;7.09;78.82;100095.31;4841647;29;20089;-76
2024/02/27 10:59:59;;;;;;;31.88;15.30;;;;;;;7.13;79.12;100089.91;4841577;29;20058;-76
2024/02/27 11:02:28;;;;;;;32.38;14.73;;;;;;;7.16;78.54;100096.78;4825164;29;20579;-76
2024/02/27 11:04:57;;;;;;;28.88;14.77;;;;;;;7.17;78.22;100098.50;4841321;29;20069;-83
2024/02/27 11:07:24;;;;;;;28.60;14.73;;;;;;;7.16;78.16;100092.41;4841650;29;20054;-78
2024/02/27 11:09:51;;;;;;;27.05;14.70;;;;;;;7.16;78.69;100095.03;4824976;29;20054;-79
2024/02/27 11:12:20;;;;;;;27.85;14.90;;;;;;;7.16;77.90;100097.66;4825067;29;20062;-77
2024/02/27 11:14:50;;;;;;;31.90;15.73;;;;;;;7.16;78.00;100092.41;4841327;29;20058;-78
2024/02/27 11:17:22;;;;;;;27.83;14.35;;;;;;;7.17;78.57;100093.25;4824967;29;20102;-80
2024/02/27 11:19:51;;;;;;;30.10;15.85;;;;;;;7.20;78.87;100101.00;4841555;29;20061;-77
2024/02/27 11:22:21;;;;;;;30.05;16.25;;;;;;;7.24;78.90;100094.75;4841266;29;20085;-79
2024/02/27 11:24:48;;;;;;;27.80;14.85;;;;;;;7.29;78.95;100095.41;4841283;29;20054;-78